createdAt,value
2018-09-20T00:01:15.027Z,5.47
2018-09-20T00:03:45.887Z,5.60
2018-09-20T00:06:15.208Z,5.10
2018-09-20T00:08:43.738Z,5.03
2018-09-20T00:11:12.257Z,5.40
2018-09-20T00:13:41.941Z,5.47
2018-09-20T00:16:10.422Z,5.33
2018-09-20T00:18:38.956Z,5.30
2018-09-20T00:21:08.917Z,5.30
2018-09-20T00:23:37.904Z,5.60
2018-09-20T00:26:06.959Z,5.40
2018-09-20T00:28:36.623Z,5.47
2018-09-20T00:31:05.322Z,5.43
2018-09-20T00:33:34.393Z,5.23
2018-09-20T00:36:03.737Z,5.20
2018-09-20T00:38:32.954Z,4.90
2018-09-20T00:41:02.578Z,5.53
2018-09-20T00:43:31.229Z,5.90
2018-09-20T00:46:00.238Z,5.63
2018-09-20T00:48:29.875Z,6.17
2018-09-20T00:50:58.361Z,6.27
2018-09-20T00:53:27.916Z,5.97
2018-09-20T00:55:56.397Z,6.00
2018-09-20T00:58:27.838Z,6.20
2018-09-20T01:00:56.348Z,6.30
2018-09-20T01:03:25.025Z,5.70
2018-09-20T01:05:53.819Z,6.17
2018-09-20T01:08:23.222Z,6.03
2018-09-20T01:10:52.220Z,5.77
2018-09-20T01:13:20.929Z,5.50
2018-09-20T01:15:49.891Z,5.30
2018-09-20T01:18:19.133Z,5.70
2018-09-20T01:20:47.629Z,5.47
2018-09-20T01:23:16.861Z,5.83
2018-09-20T01:25:45.593Z,5.70
2018-09-20T01:28:14.054Z,6.20
2018-09-20T01:30:44.106Z,5.53
2018-09-20T01:33:13.182Z,5.83
2018-09-20T01:35:42.096Z,5.20
2018-09-20T01:38:13.772Z,5.80
2018-09-20T01:40:42.329Z,6.53
2018-09-20T01:43:12.625Z,6.03
2018-09-20T01:45:42.028Z,6.50
2018-09-20T01:48:11.162Z,6.30
2018-09-20T01:50:39.996Z,6.30
2018-09-20T01:53:09.356Z,6.07
2018-09-20T01:55:38.970Z,6.53
2018-09-20T01:58:07.887Z,6.03
2018-09-20T02:00:38.717Z,6.30
2018-09-20T02:03:08.749Z,6.40
2018-09-20T02:05:38.107Z,6.83
2018-09-20T02:08:07.073Z,6.00
2018-09-20T02:10:36.570Z,7.07
2018-09-20T02:13:05.607Z,6.90
2018-09-20T02:15:34.136Z,6.37
2018-09-20T02:18:03.556Z,6.53
2018-09-20T02:20:34.150Z,6.40
2018-09-20T02:23:02.620Z,5.77
2018-09-20T02:25:31.099Z,5.70
2018-09-20T02:28:00.431Z,6.20
2018-09-20T02:30:29.358Z,5.80
2018-09-20T02:32:58.026Z,6.33
2018-09-20T02:35:26.458Z,6.00
2018-09-20T02:37:54.914Z,6.70
2018-09-20T02:40:23.592Z,5.90
2018-09-20T02:42:52.688Z,5.87
2018-09-20T02:45:21.351Z,6.20
2018-09-20T02:47:51.504Z,6.17
2018-09-20T02:50:21.317Z,7.13
2018-09-20T02:52:50.181Z,6.93
2018-09-20T02:55:19.050Z,6.80
2018-09-20T02:57:48.081Z,5.97
2018-09-20T03:00:17.614Z,6.20
2018-09-20T03:02:46.362Z,6.10
2018-09-20T03:05:14.857Z,6.67
2018-09-20T03:07:43.316Z,7.67
2018-09-20T03:10:11.797Z,6.67
2018-09-20T03:12:41.985Z,6.83
2018-09-20T03:15:10.842Z,7.03
2018-09-20T03:17:40.165Z,7.20
2018-09-20T03:20:09.458Z,7.63
2018-09-20T03:22:39.805Z,7.10
2018-09-20T03:25:08.910Z,7.10
2018-09-20T03:27:38.037Z,6.90
2018-09-20T03:30:07.759Z,7.17
2018-09-20T03:32:36.845Z,7.40
2018-09-20T03:35:07.570Z,7.50
2018-09-20T03:37:36.907Z,6.83
2018-09-20T03:40:05.424Z,6.60
2018-09-20T03:42:35.732Z,6.77
2018-09-20T03:45:05.086Z,6.73
2018-09-20T03:47:33.584Z,6.37
2018-09-20T03:50:02.173Z,6.90
2018-09-20T03:52:31.347Z,7.60
2018-09-20T03:55:00.238Z,7.20
2018-09-20T03:57:28.715Z,7.40
2018-09-20T03:59:57.201Z,7.60
2018-09-20T04:02:25.970Z,7.33
2018-09-20T04:04:55.717Z,7.70
2018-09-20T04:07:24.985Z,7.23
2018-09-20T04:09:54.206Z,6.83
2018-09-20T04:12:24.423Z,7.27
2018-09-20T04:14:53.128Z,7.00
2018-09-20T04:17:22.719Z,6.70
2018-09-20T04:19:51.541Z,7.20
2018-09-20T04:22:20.037Z,7.17
2018-09-20T04:24:49.390Z,6.97
2018-09-20T04:27:18.708Z,7.93
2018-09-20T04:29:48.369Z,7.90
2018-09-20T04:32:16.808Z,7.57
2018-09-20T04:34:45.509Z,7.90
2018-09-20T04:37:14.249Z,7.97
2018-09-20T04:39:42.780Z,7.57
2018-09-20T04:42:11.715Z,7.43
2018-09-20T04:44:41.399Z,7.67
2018-09-20T04:47:10.539Z,8.07
2018-09-20T04:49:38.993Z,7.60
2018-09-20T04:52:09.110Z,7.70
2018-09-20T04:54:38.279Z,7.23
2018-09-20T04:57:08.456Z,7.67
2018-09-20T04:59:38.309Z,8.37
2018-09-20T05:02:07.685Z,8.50
2018-09-20T05:04:36.557Z,8.67
2018-09-20T05:07:05.429Z,8.43
2018-09-20T05:09:33.921Z,8.60
2018-09-20T05:12:04.078Z,8.53
2018-09-20T05:14:32.781Z,8.77
2018-09-20T05:17:03.877Z,8.77
2018-09-20T05:19:32.667Z,7.40
2018-09-20T05:22:02.997Z,7.53
2018-09-20T05:24:32.473Z,8.27
2018-09-20T05:27:02.183Z,7.97
2018-09-20T05:29:31.691Z,7.40
2018-09-20T05:32:01.239Z,8.13
2018-09-20T05:34:29.708Z,8.10
2018-09-20T05:36:58.432Z,8.10
2018-09-20T05:39:28.113Z,8.13
2018-09-20T05:41:56.580Z,7.83
2018-09-20T05:44:25.321Z,8.67
2018-09-20T05:46:54.321Z,8.33
2018-09-20T05:49:22.757Z,8.57
2018-09-20T05:51:53.886Z,8.27
2018-09-20T05:54:22.333Z,8.20
2018-09-20T05:56:51.644Z,8.40
2018-09-20T05:59:20.669Z,8.10
2018-09-20T06:01:49.161Z,8.40
2018-09-20T06:04:18.473Z,8.47
2018-09-20T06:06:47.423Z,8.57
2018-09-20T06:09:16.105Z,8.80
2018-09-20T06:11:45.452Z,7.87
2018-09-20T06:14:13.942Z,8.30
2018-09-20T06:16:43.133Z,8.57
2018-09-20T06:19:12.594Z,8.17
2018-09-20T06:21:42.507Z,8.97
2018-09-20T06:24:10.980Z,9.27
2018-09-20T06:26:40.745Z,8.43
2018-09-20T06:29:09.908Z,8.73
2018-09-20T06:31:38.403Z,8.00
2018-09-20T06:34:08.457Z,9.00
2018-09-20T06:36:39.683Z,7.97
2018-09-20T06:39:12.346Z,8.73
2018-09-20T06:41:41.653Z,8.73
2018-09-20T06:44:10.539Z,8.47
2018-09-20T06:46:39.126Z,9.13
2018-09-20T06:49:08.802Z,9.40
2018-09-20T06:51:38.341Z,9.03
2018-09-20T06:54:07.306Z,10.17
2018-09-20T06:56:36.540Z,9.97
2018-09-20T06:59:05.212Z,9.33
2018-09-20T07:01:34.240Z,9.47
2018-09-20T07:04:03.513Z,10.17
2018-09-20T07:06:33.041Z,10.30
2018-09-20T07:09:01.592Z,10.30
2018-09-20T07:11:31.945Z,11.50
2018-09-20T07:14:01.689Z,11.40
2018-09-20T07:16:32.337Z,10.50
2018-09-20T07:19:01.121Z,10.90
2018-09-20T07:21:31.530Z,10.53
2018-09-20T07:23:59.982Z,12.00
2018-09-20T07:26:30.804Z,11.90
2018-09-20T07:29:00.532Z,11.27
2018-09-20T07:31:30.329Z,12.00
2018-09-20T07:33:59.488Z,11.83
2018-09-20T07:36:28.509Z,11.03
2018-09-20T07:38:56.986Z,10.90
2018-09-20T07:41:26.370Z,11.23
2018-09-20T07:43:55.833Z,10.97
2018-09-20T07:46:24.585Z,11.10
2018-09-20T07:48:53.429Z,10.23
2018-09-20T07:51:22.986Z,10.87
2018-09-20T07:53:53.623Z,9.80
2018-09-20T07:56:22.086Z,10.43
2018-09-20T07:58:51.761Z,9.40
2018-09-20T08:01:20.747Z,9.40
2018-09-20T08:03:51.080Z,10.07
2018-09-20T08:06:20.706Z,10.00
2018-09-20T08:08:50.638Z,9.27
2018-09-20T08:11:19.493Z,9.67
2018-09-20T08:13:48.010Z,9.80
2018-09-20T08:16:17.308Z,9.77
2018-09-20T08:18:46.837Z,9.70
2018-09-20T08:21:15.284Z,9.07
2018-09-20T08:23:44.734Z,8.93
2018-09-20T08:26:13.541Z,8.77
2018-09-20T08:28:42.913Z,8.70
2018-09-20T08:31:12.626Z,9.10
2018-09-20T08:33:41.148Z,8.53
2018-09-20T08:36:10.388Z,8.70
2018-09-20T08:38:38.868Z,9.60
2018-09-20T08:41:07.505Z,9.80
2018-09-20T08:43:37.184Z,9.27
2018-09-20T08:46:05.905Z,8.63
2018-09-20T08:48:35.737Z,8.10
2018-09-20T08:51:05.931Z,8.63
2018-09-20T08:53:35.398Z,7.60
2018-09-20T08:56:03.878Z,7.90
2018-09-20T08:58:33.027Z,7.90
2018-09-20T09:01:04.341Z,6.60
2018-09-20T09:03:33.613Z,5.87
2018-09-20T09:06:02.352Z,5.27
2018-09-20T09:08:31.395Z,5.93
2018-09-20T09:11:00.881Z,5.17
2018-09-20T09:13:30.878Z,5.47
2018-09-20T09:15:59.598Z,5.27
2018-09-20T09:18:28.259Z,5.10
2018-09-20T09:20:57.081Z,4.63
2018-09-20T09:23:25.609Z,4.80
2018-09-20T09:25:55.007Z,5.07
2018-09-20T09:28:23.834Z,4.83
2018-09-20T09:30:52.293Z,4.57
2018-09-20T09:33:22.306Z,5.30
2018-09-20T09:35:51.966Z,4.73
2018-09-20T09:38:21.138Z,4.63
2018-09-20T09:40:49.611Z,4.67
2018-09-20T09:43:18.492Z,4.60
2018-09-20T09:45:47.022Z,4.70
2018-09-20T09:48:16.379Z,4.60
2018-09-20T09:50:45.824Z,5.00
2018-09-20T09:53:14.333Z,5.03
2018-09-20T09:55:44.137Z,4.57
2018-09-20T09:58:16.377Z,4.40
2018-09-20T10:00:44.864Z,4.93
2018-09-20T10:03:16.341Z,4.70
2018-09-20T10:05:45.157Z,4.53
2018-09-20T10:08:16.110Z,4.40
2018-09-20T10:10:45.542Z,4.60
2018-09-20T10:13:14.029Z,4.00
2018-09-20T10:15:43.190Z,4.03
2018-09-20T10:18:12.639Z,4.30
2018-09-20T10:20:41.383Z,4.10
2018-09-20T10:23:11.326Z,4.60
2018-09-20T10:25:39.824Z,4.67
2018-09-20T10:28:08.706Z,4.43
2018-09-20T10:30:37.158Z,4.37
2018-09-20T10:33:07.179Z,4.20
2018-09-20T10:35:36.847Z,4.03
2018-09-20T10:38:06.221Z,3.83
2018-09-20T10:40:36.598Z,4.13
2018-09-20T10:43:06.232Z,4.70
2018-09-20T10:45:36.149Z,4.40
2018-09-20T10:48:05.460Z,4.20
2018-09-20T10:50:35.577Z,4.50
2018-09-20T10:53:04.300Z,4.43
2018-09-20T10:55:38.681Z,4.40
2018-09-20T10:58:07.249Z,4.27
2018-09-20T11:00:35.759Z,4.43
2018-09-20T11:03:04.343Z,4.30
2018-09-20T11:05:33.634Z,4.13
2018-09-20T11:08:02.362Z,4.30
2018-09-20T11:10:32.015Z,3.83
2018-09-20T11:13:01.412Z,3.87
2018-09-20T11:15:30.257Z,4.37
2018-09-20T11:17:59.113Z,3.97
2018-09-20T11:20:29.129Z,4.20
2018-09-20T11:22:57.614Z,4.00
2018-09-20T11:25:27.122Z,3.90
2018-09-20T11:27:55.611Z,4.00
2018-09-20T11:30:24.313Z,4.37
2018-09-20T11:32:53.168Z,4.10
2018-09-20T11:35:22.706Z,4.03
2018-09-20T11:37:51.456Z,4.17
2018-09-20T11:40:20.604Z,4.03
2018-09-20T11:42:49.118Z,4.27
2018-09-20T11:45:17.918Z,4.40
2018-09-20T11:47:46.377Z,4.63
2018-09-20T11:50:16.814Z,4.30
2018-09-20T11:52:45.394Z,4.90
2018-09-20T11:55:15.148Z,4.00
2018-09-20T11:57:45.659Z,4.20
2018-09-20T12:00:15.354Z,4.23
2018-09-20T12:02:43.844Z,4.20
2018-09-20T12:05:12.616Z,4.57
2018-09-20T12:07:41.879Z,4.37
2018-09-20T12:10:11.297Z,4.40
2018-09-20T12:12:40.191Z,4.33
2018-09-20T12:15:09.293Z,4.07
2018-09-20T12:17:42.194Z,4.20
2018-09-20T12:20:11.896Z,4.30
2018-09-20T12:22:40.385Z,4.20
2018-09-20T12:25:08.870Z,3.90
2018-09-20T12:27:37.357Z,4.13
2018-09-20T12:30:06.786Z,4.00
2018-09-20T12:32:35.798Z,3.63
2018-09-20T12:35:05.190Z,4.07
2018-09-20T12:37:39.161Z,4.20
2018-09-20T12:40:09.444Z,3.73
2018-09-20T12:42:38.670Z,3.77
2018-09-20T12:45:08.072Z,3.90
2018-09-20T12:47:37.765Z,3.83
2018-09-20T12:50:06.719Z,3.43
2018-09-20T12:52:35.307Z,3.13
2018-09-20T12:55:04.021Z,3.63
2018-09-20T12:57:32.519Z,3.13
2018-09-20T13:00:00.987Z,4.17
2018-09-20T13:02:30.192Z,3.53
2018-09-20T13:04:58.880Z,3.40
2018-09-20T13:07:28.349Z,3.80
2018-09-20T13:09:56.805Z,3.47
2018-09-20T13:12:29.485Z,3.47
2018-09-20T13:14:58.226Z,3.63
2018-09-20T13:17:27.013Z,3.40
2018-09-20T13:19:56.509Z,3.50
2018-09-20T13:22:25.014Z,3.40
2018-09-20T13:24:53.754Z,3.87
2018-09-20T13:27:22.221Z,3.30
2018-09-20T13:29:50.750Z,4.13
2018-09-20T13:32:19.488Z,3.37
2018-09-20T13:34:48.829Z,3.50
2018-09-20T13:37:17.717Z,3.30
2018-09-20T13:39:47.390Z,3.80
2018-09-20T13:42:16.423Z,3.90
2018-09-20T13:44:44.942Z,3.20
2018-09-20T13:47:14.333Z,3.47
2018-09-20T13:49:42.888Z,3.43
2018-09-20T13:52:13.115Z,3.47
2018-09-20T13:54:41.680Z,3.60
2018-09-20T13:57:12.266Z,3.07
2018-09-20T13:59:41.484Z,3.43
2018-09-20T14:02:11.625Z,2.93
2018-09-20T14:04:40.565Z,3.37
2018-09-20T14:07:09.435Z,3.40
2018-09-20T14:09:37.957Z,3.10
2018-09-20T14:12:06.459Z,3.30
2018-09-20T14:14:35.991Z,3.43
2018-09-20T14:17:04.826Z,3.27
2018-09-20T14:19:34.732Z,3.50
2018-09-20T14:22:03.511Z,3.20
2018-09-20T14:24:32.152Z,3.27
2018-09-20T14:27:00.678Z,3.47
2018-09-20T14:29:30.529Z,3.50
2018-09-20T14:31:59.177Z,3.00
2018-09-20T14:34:28.373Z,3.30
2018-09-20T14:36:57.281Z,3.23
2018-09-20T14:39:26.042Z,3.53
2018-09-20T14:41:56.498Z,3.17
2018-09-20T14:45:09.153Z,2.97
2018-09-20T14:47:37.677Z,3.43
2018-09-20T14:50:07.902Z,3.00
2018-09-20T14:52:36.725Z,3.13
2018-09-20T14:55:06.689Z,3.10
2018-09-20T14:57:35.989Z,3.23
2018-09-20T15:00:05.521Z,3.30
2018-09-20T15:02:35.257Z,3.53
2018-09-20T15:05:05.592Z,3.23
2018-09-20T15:07:34.365Z,3.10
2018-09-20T15:10:03.257Z,3.07
2018-09-20T15:12:32.081Z,3.40
2018-09-20T15:15:01.747Z,3.30
2018-09-20T15:17:30.269Z,3.10
2018-09-20T15:19:59.749Z,2.87
2018-09-20T15:22:28.727Z,3.20
2018-09-20T15:24:58.146Z,3.00
2018-09-20T15:27:28.293Z,3.37
2018-09-20T15:29:57.130Z,3.10
2018-09-20T15:32:26.512Z,3.00
2018-09-20T15:34:55.819Z,2.93
2018-09-20T15:37:24.901Z,3.23
2018-09-20T15:39:54.123Z,2.90
2018-09-20T15:42:23.126Z,3.40
2018-09-20T15:44:53.090Z,3.40
2018-09-20T15:47:21.899Z,2.90
2018-09-20T15:49:54.009Z,3.10
2018-09-20T15:52:24.420Z,3.03
2018-09-20T15:54:53.889Z,2.90
2018-09-20T15:57:24.221Z,2.50
2018-09-20T15:59:53.623Z,2.87
2018-09-20T16:02:22.507Z,2.80
2018-09-20T16:04:51.606Z,2.83
2018-09-20T16:07:21.045Z,3.17
2018-09-20T16:09:50.065Z,2.90
2018-09-20T16:12:19.386Z,2.80
2018-09-20T16:14:49.012Z,2.97
2018-09-20T16:17:18.333Z,2.93
2018-09-20T16:19:49.984Z,2.63
2018-09-20T16:22:21.997Z,3.33
2018-09-20T16:24:52.222Z,3.17
2018-09-20T16:27:21.556Z,3.07
2018-09-20T16:30:32.375Z,3.20
2018-09-20T16:33:17.398Z,3.00
2018-09-20T16:35:53.821Z,2.90
2018-09-20T16:38:32.053Z,2.90
2018-09-20T16:41:02.834Z,3.10
2018-09-20T16:43:32.475Z,3.30
2018-09-20T16:46:02.558Z,2.97
2018-09-20T16:48:31.941Z,3.13
2018-09-20T16:51:01.792Z,3.00
2018-09-20T16:53:31.224Z,3.40
2018-09-20T16:56:01.189Z,3.10
2018-09-20T16:58:30.541Z,3.43
2018-09-20T17:01:00.876Z,3.40
2018-09-20T17:03:29.316Z,3.50
2018-09-20T17:05:58.471Z,3.53
2018-09-20T17:08:27.750Z,3.17
2018-09-20T17:10:56.703Z,3.77
2018-09-20T17:13:26.409Z,3.60
2018-09-20T17:15:55.441Z,3.83
2018-09-20T17:18:23.907Z,3.73
2018-09-20T17:20:52.702Z,3.47
2018-09-20T17:23:24.969Z,3.67
2018-09-20T17:25:54.492Z,3.60
2018-09-20T17:28:23.592Z,3.63
2018-09-20T17:30:53.044Z,4.10
2018-09-20T17:33:23.664Z,3.50
2018-09-20T17:35:52.808Z,3.37
2018-09-20T17:38:23.027Z,3.80
2018-09-20T17:40:55.562Z,3.50
2018-09-20T17:43:29.556Z,3.50
2018-09-20T17:45:58.480Z,3.80
2018-09-20T17:48:27.174Z,4.17
2018-09-20T17:50:56.328Z,3.80
2018-09-20T17:53:25.840Z,3.53
2018-09-20T17:55:55.115Z,3.80
2018-09-20T17:58:25.561Z,3.70
2018-09-20T18:00:54.969Z,3.50
2018-09-20T18:03:24.049Z,4.07
2018-09-20T18:05:52.981Z,3.80
2018-09-20T18:08:21.808Z,4.33
2018-09-20T18:10:50.906Z,3.53
2018-09-20T18:13:19.940Z,3.73
2018-09-20T18:15:49.185Z,3.57
2018-09-20T18:18:18.030Z,3.93
2018-09-20T18:23:15.537Z,3.43
2018-09-20T18:25:44.501Z,4.07
2018-09-20T18:28:13.158Z,4.10
2018-09-20T18:30:41.822Z,3.90
2018-09-20T18:33:11.156Z,3.90
2018-09-20T18:35:40.147Z,4.33
2018-09-20T18:38:08.941Z,3.80
2018-09-20T18:40:38.544Z,3.97
2018-09-20T18:43:07.423Z,3.80
2018-09-20T18:45:36.691Z,4.23
2018-09-20T18:48:06.196Z,3.83
2018-09-20T18:50:35.706Z,4.70
2018-09-20T18:53:04.429Z,4.13
2018-09-20T18:55:34.352Z,4.30
2018-09-20T18:58:02.761Z,4.00
2018-09-20T19:00:32.609Z,4.00
2018-09-20T19:03:01.505Z,4.17
2018-09-20T19:05:30.633Z,4.30
2018-09-20T19:08:00.154Z,3.83
2018-09-20T19:10:29.082Z,3.53
2018-09-20T19:12:58.912Z,3.77
2018-09-20T19:15:28.111Z,4.27
2018-09-20T19:17:56.792Z,3.50
2018-09-20T19:20:25.533Z,4.30
2018-09-20T19:22:54.373Z,4.20
2018-09-20T19:25:23.437Z,3.90
2018-09-20T19:27:53.026Z,4.33
2018-09-20T19:30:22.189Z,4.00
2018-09-20T19:32:51.696Z,4.17
2018-09-20T19:35:20.405Z,4.40
2018-09-20T19:37:49.305Z,4.37
2018-09-20T19:40:18.314Z,4.70
2018-09-20T19:42:47.199Z,3.93
2018-09-20T19:45:16.865Z,4.20
2018-09-20T19:47:45.770Z,4.23
2018-09-20T19:50:15.656Z,4.80
2018-09-20T19:52:44.127Z,3.83
2018-09-20T19:55:14.550Z,4.30
2018-09-20T19:57:43.856Z,4.60
2018-09-20T20:00:14.128Z,4.30
2018-09-20T20:02:43.607Z,4.13
2018-09-20T20:05:13.468Z,4.70
2018-09-20T20:07:43.388Z,3.87
2018-09-20T20:10:11.844Z,4.00
2018-09-20T20:12:40.844Z,4.80
2018-09-20T20:15:09.352Z,4.50
2018-09-20T20:17:41.720Z,4.50
2018-09-20T20:20:10.846Z,4.40
2018-09-20T20:22:39.804Z,4.73
2018-09-20T20:25:10.294Z,4.23
2018-09-20T20:27:40.045Z,4.27
2018-09-20T20:30:09.860Z,4.23
2018-09-20T20:32:39.011Z,4.30
2018-09-20T20:35:08.137Z,4.60
2018-09-20T20:37:36.966Z,4.17
2018-09-20T20:40:06.417Z,4.27
2018-09-20T20:42:35.262Z,4.43
2018-09-20T20:45:04.578Z,4.53
2018-09-20T20:47:34.302Z,4.17
2018-09-20T20:50:03.815Z,4.73
2018-09-20T20:52:33.573Z,4.27
2018-09-20T20:55:02.452Z,4.70
2018-09-20T20:57:31.828Z,4.10
2018-09-20T21:00:01.528Z,4.53
2018-09-20T21:02:30.353Z,4.70
2018-09-20T21:04:59.591Z,4.33
2018-09-20T21:07:28.282Z,4.77
2018-09-20T21:09:57.388Z,4.80
2018-09-20T21:12:25.901Z,4.90
2018-09-20T21:14:55.321Z,4.47
2018-09-20T21:17:24.730Z,3.97
2018-09-20T21:19:53.833Z,4.87
2018-09-20T21:22:23.188Z,5.17
2018-09-20T21:24:52.201Z,4.50
2018-09-20T21:27:20.691Z,4.13
2018-09-20T21:29:49.504Z,4.57
2018-09-20T21:32:18.613Z,4.40
2018-09-20T21:34:48.094Z,5.20
2018-09-20T21:37:17.246Z,4.90
2018-09-20T21:39:46.094Z,4.60
2018-09-20T21:42:14.633Z,4.93
2018-09-20T21:44:43.504Z,5.23
2018-09-20T21:47:12.013Z,5.00
2018-09-20T21:49:41.768Z,4.80
2018-09-20T21:52:10.572Z,4.50
2018-09-20T21:54:40.479Z,4.20
2018-09-20T21:57:09.749Z,4.90
2018-09-20T21:59:39.255Z,4.90
2018-09-20T22:02:07.793Z,4.97
2018-09-20T22:04:36.948Z,5.17
2018-09-20T22:07:07.153Z,4.80
2018-09-20T22:09:36.457Z,4.70
2018-09-20T22:12:06.098Z,4.50
2018-09-20T22:14:35.489Z,4.13
2018-09-20T22:17:04.570Z,4.70
2018-09-20T22:19:34.191Z,4.63
2018-09-20T22:22:03.085Z,5.10
2018-09-20T22:24:32.025Z,4.57
2018-09-20T22:27:01.239Z,5.03
2018-09-20T22:29:30.657Z,4.63
2018-09-20T22:31:59.665Z,4.70
2018-09-20T22:34:28.149Z,4.67
2018-09-20T22:36:58.025Z,4.40
2018-09-20T22:39:27.599Z,4.63
2018-09-20T22:41:57.299Z,4.97
2018-09-20T22:44:26.204Z,4.97
2018-09-20T22:46:55.658Z,5.13
2018-09-20T22:49:25.411Z,5.13
2018-09-20T22:51:54.592Z,5.53
2018-09-20T22:54:23.172Z,5.20
2018-09-20T22:56:52.581Z,4.93
2018-09-20T22:59:23.027Z,4.90
2018-09-20T23:01:53.085Z,4.97
2018-09-20T23:04:21.849Z,5.47
2018-09-20T23:06:50.963Z,5.37
2018-09-20T23:09:19.696Z,5.00
2018-09-20T23:11:48.405Z,5.10
2018-09-20T23:14:17.108Z,5.33
2018-09-20T23:16:45.912Z,5.20
2018-09-20T23:19:15.213Z,5.10
2018-09-20T23:21:44.026Z,5.47
2018-09-20T23:24:13.818Z,4.97
2018-09-20T23:26:42.732Z,4.97
2018-09-20T23:29:11.965Z,5.13
2018-09-20T23:31:41.485Z,5.70
2018-09-20T23:34:10.936Z,5.63
2018-09-20T23:36:39.741Z,5.80
2018-09-20T23:39:10.152Z,5.40
2018-09-20T23:41:40.041Z,6.00
2018-09-20T23:44:09.604Z,5.63
2018-09-20T23:46:39.415Z,5.80
2018-09-20T23:49:09.113Z,5.87
2018-09-20T23:51:39.013Z,6.00
2018-09-20T23:54:08.267Z,5.60
2018-09-20T23:56:36.708Z,5.70
2018-09-20T23:59:07.150Z,5.53
